KMMI/MMI METAR and TAF weather

Enter ICAO airport designator
Station Type Date Time Source
KMMI METAR 2019/05/26 22:55 UTC NOAA

KMMI 262255Z AUTO 24006G11KT 10SM CLR 32/16 A3009 RMK A01


Station Type Date Time Source
KMMI Decoded METAR 2019/05/26 22:55 UTC NOAA

Station name not available
May 26, 2019 - 06:55 PM EDT / 2019.05.26 2255 UTC
Wind: from the WSW (240 degrees) at 7 MPH (6 KT) gusting to 13 MPH (11 KT):0
Visibility: 10 mile(s):0
Sky conditions: clear
Temperature: 89 F (32 C)
Dew Point: 60 F (16 C)
Relative Humidity: 38%
Pressure (altimeter): 30.09 in. Hg (1018 hPa)
ob: KMMI 262255Z AUTO 24006G11KT 10SM CLR 32/16 A3009 RMK A01
cycle: 23

Station Type Date Time Source
KMMI TAF UTC NOAA

Error!

Example: see airport list